Terminal Aerodrome Forecast
Issued by NWS

Home | Current Version | Previous Version | Text Only | Print | Product List | Glossary On
Versions: 1 2 3 4 5 6 7 8 9 10 11 12 13 14 15 16 17 18 19 20 21 22 23 24 25 26 27 28 29 30 31
000
FTUS41 KCAR 110540
TAFHUL
TAF
KHUL 110540Z 1106/1206 30005KT P6SM FEW120
     FM112100 27005KT P6SM BKN035
     FM112200 27004KT P6SM SCT080 OVC150=

USA.gov is the U.S. government's official web portal to all federal, state and local government web resources and services.